KD8JAM Weather Reports


Display with metric or nautical units.
time (UTC)temp
F
wind
direction
speed
MPH
gust
MPH
rain 1hr
in
rain 24hr
in
rain mn
in
humidity
%
barometer
mb
20260503035947 37 119 3.0 3.0 0.00 0.00 0.00 70 1010.0
20260503035443 37 124 3.0 3.0 0.00 0.00 0.00 70 1009.9
20260503034942 37 124 1.0 2.0 0.00 0.00 0.00 71 1010.3
20260503034439 37 157 2.0 2.0 0.00 0.00 0.00 70 1010.2
20260503033935 37 134 2.0 3.0 0.00 0.00 0.00 69 1010.4
20260503033433 37 95 1.0 2.0 0.00 0.00 0.00 70 1010.4
20260503032930 37 123 1.0 1.0 0.00 0.00 0.00 70 1010.6
20260503032424 37 87 3.0 3.0 0.00 0.00 0.00 70 1010.7
20260503031921 37 92 2.0 5.0 0.00 0.00 0.00 70 1010.9
20260503031418 37 145 3.0 3.0 0.00 0.00 0.00 70 1011.1
20260503030915 37 124 2.0 2.0 0.00 0.00 0.00 70 1011.0
20260503030412 37 97 0.0 1.0 0.00 0.00 0.00 70 1011.0
20260503025908 37 189 2.0 2.0 0.00 0.00 0.00 69 1011.2
20260503025405 37 87 0.0 1.0 0.00 0.00 0.00 71 1011.4
20260503024902 37 86 1.0 1.0 0.00 0.00 0.00 69 1011.3
20260503024359 37 96 2.0 2.0 0.00 0.00 0.00 68 1011.5
20260503023855 37 119 2.0 2.0 0.00 0.00 0.00 68 1011.7
20260503023352 38 126 1.0 2.0 0.00 0.00 0.00 68 1011.6
20260503022849 38 169 2.0 3.0 0.00 0.00 0.00 67 1011.8
20260503022344 38 85 3.0 3.0 0.00 0.00 0.00 67 1011.6
20260503021841 38 89 1.0 2.0 0.00 0.00 0.00 67 1011.6
20260503021337 38 80 1.0 2.0 0.00 0.00 0.00 67 1011.7
20260503020834 38 80 1.0 1.0 0.00 0.00 0.00 67 1011.5
20260503020332 38 72 0.0 1.0 0.00 0.00 0.00 68 1011.7
20260503015829 38 105 2.0 2.0 0.00 0.00 0.00 66 1011.7
20260503015326 38 137 2.0 2.0 0.00 0.00 0.00 67 1011.8
20260503014821 38 88 1.0 1.0 0.00 0.00 0.00 68 1012.0
20260503014319 38 83 1.0 2.0 0.00 0.00 0.00 67 1012.0
20260503013816 38 80 0.0 0.0 0.00 0.00 0.00 67 1011.9
20260503013314 38 162 3.0 3.0 0.00 0.00 0.00 66 1011.9
20260503012811 38 108 1.0 1.0 0.00 0.00 0.00 66 1012.0
20260503012308 38 96 0.0 1.0 0.00 0.00 0.00 65 1012.0
20260503011804 38 75 0.0 0.0 0.00 0.00 0.00 65 1012.2
20260503011302 39 133 1.0 2.0 0.00 0.00 0.00 64 1012.0
20260503010758 39 78 1.0 1.0 0.00 0.00 0.00 64 1012.1
20260503010255 39 79 0.0 1.0 0.00 0.00 0.00 64 1012.2
20260503005752 39 217 2.0 2.0 0.00 0.00 0.00 62 1012.3
20260503005249 39 72 0.0 0.0 0.00 0.00 0.00 62 1012.4
20260503004745 40 73 1.0 2.0 0.00 0.00 0.00 61 1012.4
20260503004244 40 123 1.0 2.0 0.00 0.00 0.00 60 1012.5
20260503003740 41 85 3.0 3.0 0.00 0.00 0.00 59 1012.4
20260503003237 41 56 1.0 1.0 0.00 0.00 0.00 59 1012.4
20260503002734 42 67 0.0 1.0 0.00 0.00 0.00 57 1012.5
20260503002231 42 73 0.0 1.0 0.00 0.00 0.00 56 1012.4
20260503001727 42 71 2.0 3.0 0.00 0.00 0.00 55 1012.6
20260503001224 42 85 3.0 3.0 0.00 0.00 0.00 54 1012.7
20260503000722 42 58 2.0 3.0 0.00 0.00 0.00 55 1012.8
20260503000219 43 115 1.0 2.0 0.00 0.00 0.00 57 1012.5
20260502235716 43 83 0.0 1.0 0.00 0.00 0.00 56 1012.7
20260502235214 44 146 3.0 3.0 0.00 0.00 0.00 54 1012.7
20260502234709 44 80 0.0 1.0 0.00 0.00 0.00 54 1012.7
20260502234207 44 133 3.0 3.0 0.00 0.00 0.00 53 1012.8
20260502233702 45 98 2.0 2.0 0.00 0.00 0.00 53 1012.8
20260502233200 45 86 1.0 1.0 0.00 0.00 0.00 52 1012.9
20260502232655 46 82 2.0 3.0 0.00 0.00 0.00 51 1013.2
20260502232153 46 116 1.0 2.0 0.00 0.00 0.00 50 1012.8
20260502231649 47 89 2.0 2.0 0.00 0.00 0.00 51 1013.0
20260502231147 47 189 2.0 3.0 0.00 0.00 0.00 51 1013.0
20260502230646 47 96 2.0 3.0 0.00 0.00 0.00 51 1013.3
20260502230144 47 84 2.0 2.0 0.00 0.00 0.00 50 1013.0
20260502225639 47 109 4.0 5.0 0.00 0.00 0.00 50 1013.2
20260502225137 48 135 3.0 5.0 0.00 0.00 0.00 50 1013.0
20260502224633 48 130 4.0 6.0 0.00 0.00 0.00 49 1013.2
20260502224129 48 115 1.0 2.0 0.00 0.00 0.00 50 1013.2
20260502223627 48 107 2.0 2.0 0.00 0.00 0.00 50 1013.3
20260502223125 48 93 2.0 3.0 0.00 0.00 0.00 50 1013.4
20260502222622 48 109 4.0 7.0 0.00 0.00 0.00 48 1013.6
20260502222119 49 61 3.0 6.0 0.00 0.00 0.00 49 1013.4
20260502221614 49 139 5.0 7.0 0.00 0.00 0.00 49 1013.4
20260502221112 50 106 5.0 7.0 0.00 0.00 0.00 49 1013.5
20260502220608 50 36 1.0 1.0 0.00 0.00 0.00 47 1013.5
20260502220059 51 190 3.0 3.0 0.00 0.00 0.00 40 1013.5
20260502215556 51 357 2.0 2.0 0.00 0.00 0.00 40 1013.4
20260502215053 52 38 0.0 1.0 0.00 0.00 0.00 39 1013.3
20260502214549 52 180 3.0 3.0 0.00 0.00 0.00 40 1013.4
20260502214047 51 48 0.0 0.0 0.00 0.00 0.00 41 1013.5
20260502213544 52 313 1.0 2.0 0.00 0.00 0.00 39 1013.7
20260502213042 52 162 2.0 2.0 0.00 0.00 0.00 39 1013.7
20260502212540 52 176 3.0 3.0 0.00 0.00 0.00 39 1013.9
20260502212038 52 242 3.0 3.0 0.00 0.00 0.00 38 1014.0
20260502211533 51 48 1.0 1.0 0.00 0.00 0.00 40 1013.9
20260502211030 52 89 1.0 3.0 0.00 0.00 0.00 38 1013.8
20260502210527 52 21 2.0 2.0 0.00 0.00 0.00 40 1014.0
20260502210024 51 204 2.0 2.0 0.00 0.00 0.00 42 1014.3
20260502205521 50 36 2.0 2.0 0.00 0.00 0.00 40 1014.1
20260502205018 50 14 1.0 2.0 0.00 0.00 0.00 40 1014.4
20260502204515 50 179 4.0 6.0 0.00 0.00 0.00 40 1014.3
20260502204013 50 334 3.0 3.0 0.00 0.00 0.00 39 1014.5
20260502203509 51 321 2.0 3.0 0.00 0.00 0.00 37 1014.4
20260502203006 51 324 3.0 5.0 0.00 0.00 0.00 40 1014.6
20260502202503 52 223 3.0 5.0 0.00 0.00 0.00 38 1014.5
20260502202001 52 113 1.0 1.0 0.00 0.00 0.00 40 1014.6
20260502201456 52 348 3.0 6.0 0.00 0.00 0.00 38 1014.8
20260502200953 51 129 2.0 3.0 0.00 0.00 0.00 38 1014.8
20260502200449 52 250 3.0 3.0 0.00 0.00 0.00 38 1014.7
20260502195947 51 235 4.0 5.0 0.00 0.00 0.00 39 1014.8
20260502195444 50 11 2.0 2.0 0.00 0.00 0.00 39 1014.7
20260502194940 50 4 2.0 2.0 0.00 0.00 0.00 41 1014.8
20260502194437 50 165 5.0 5.0 0.00 0.00 0.00 41 1015.1
20260502193933 50 116 4.0 6.0 0.00 0.00 0.00 40 1015.3
20260502193430 50 245 4.0 5.0 0.00 0.00 0.00 39 1015.3
20260502192925 50 301 4.0 5.0 0.00 0.00 0.00 40 1015.1
20260502192423 51 27 1.0 1.0 0.00 0.00 0.00 43 1015.2
20260502191920 51 198 4.0 6.0 0.00 0.00 0.00 42 1015.3
20260502191418 50 283 5.0 7.0 0.00 0.00 0.00 42 1015.5
20260502190915 51 239 2.0 3.0 0.00 0.00 0.00 44 1015.6
20260502190412 50 241 4.0 5.0 0.00 0.00 0.00 42 1015.6
20260502185908 49 304 1.0 2.0 0.00 0.00 0.00 46 1015.5
20260502185404 50 280 3.0 3.0 0.00 0.00 0.00 43 1016.0
20260502184901 50 298 3.0 3.0 0.00 0.00 0.00 45 1015.8
20260502184356 50 15 2.0 3.0 0.00 0.00 0.00 42 1015.9
20260502183853 49 345 3.0 3.0 0.00 0.00 0.00 45 1015.8
20260502183349 50 48 2.0 2.0 0.00 0.00 0.00 44 1015.9
20260502182844 50 64 1.0 1.0 0.00 0.00 0.00 47 1015.8
20260502182340 49 37 2.0 3.0 0.00 0.00 0.00 45 1016.0
20260502181837 49 241 3.0 5.0 0.00 0.00 0.00 47 1015.9
20260502181336 49 31 3.0 3.0 0.00 0.00 0.00 44 1016.1
20260502180833 50 15 4.0 5.0 0.00 0.00 0.00 48 1015.9
20260502180330 49 150 3.0 3.0 0.00 0.00 0.00 48 1016.2
20260502170249 49 339 1.0 2.0 0.00 0.00 0.00 54 1016.7
20260502164237 47 343 1.0 1.0 0.00 0.00 0.00 52 1016.7
20260502163732 48 51 3.0 3.0 0.00 0.00 0.00 53 1016.7
20260502163229 49 34 3.0 5.0 0.00 0.00 0.00 49 1016.9
20260502162726 48 27 3.0 3.0 0.00 0.00 0.00 51 1017.0
20260502162223 49 40 1.0 2.0 0.00 0.00 0.00 51 1017.0
20260502161720 48 295 3.0 3.0 0.00 0.00 0.00 52 1017.1
20260502161216 48 30 2.0 2.0 0.00 0.00 0.00 51 1017.0
20260502160715 48 50 3.0 3.0 0.00 0.00 0.00 48 1017.2
20260502160213 48 62 0.0 1.0 0.00 0.00 0.00 51 1017.2
20260502152132 47 357 2.0 3.0 0.00 0.00 0.00 51 1017.5
20260502151630 47 124 1.0 2.0 0.00 0.00 0.00 50 1017.3
20260502151127 47 200 2.0 3.0 0.00 0.00 0.00 51 1017.6
20260502150624 47 49 1.0 1.0 0.00 0.00 0.00 49 1017.5
20260502150120 47 30 1.0 1.0 0.00 0.00 0.00 49 1017.6
20260502130509 44 63 0.0 1.0 0.00 0.00 0.00 56 1018.2
20260502123452 42 348 1.0 1.0 0.00 0.00 0.00 60 1018.3
20260502122949 42 174 0.0 1.0 0.00 0.00 0.00 59 1018.5
20260502122444 41 87 0.0 0.0 0.00 0.00 0.00 58 1018.5
20260502121943 41 70 1.0 1.0 0.00 0.00 0.00 61 1018.4
20260502121440 41 87 0.0 0.0 0.00 0.00 0.00 59 1018.4
20260502120938 41 83 1.0 1.0 0.00 0.00 0.00 61 1018.3
20260502120433 40 72 0.0 0.0 0.00 0.00 0.00 62 1018.4
20260502115931 40 77 0.0 0.0 0.00 0.00 0.00 61 1018.6
20260502115428 39 67 0.0 0.0 0.00 0.00 0.00 63 1018.4
20260502114924 39 212 1.0 2.0 0.00 0.00 0.00 63 1018.7
20260502114421 39 77 0.0 0.0 0.00 0.00 0.00 61 1018.7
20260502113918 38 90 0.0 0.0 0.00 0.00 0.00 63 1018.6
20260502113416 37 109 1.0 1.0 0.00 0.00 0.00 65 1018.6
20260502112914 36 40 0.0 0.0 0.00 0.00 0.00 65 1018.6
20260502112411 36 67 0.0 0.0 0.00 0.00 0.00 66 1018.5
20260502111909 35 79 0.0 0.0 0.00 0.00 0.00 67 1018.6
20260502111406 35 67 0.0 0.0 0.00 0.00 0.00 66 1018.4
20260502110903 34 76 0.0 0.0 0.00 0.00 0.00 68 1018.5
20260502110401 34 63 1.0 1.0 0.00 0.00 0.00 68 1018.4
20260502105858 34 81 0.0 0.0 0.00 0.00 0.00 69 1018.5
20260502105355 34 55 0.0 1.0 0.00 0.00 0.00 69 1018.7
20260502104853 33 72 0.0 1.0 0.00 0.00 0.00 69 1018.5
20260502104350 33 55 0.0 1.0 0.00 0.00 0.00 70 1018.5
20260502103847 33 216 2.0 2.0 0.00 0.00 0.00 70 1018.4
20260502103344 33 34 1.0 2.0 0.00 0.00 0.00 71 1018.4
20260502102841 33 79 0.0 1.0 0.00 0.00 0.00 70 1018.4
20260502102338 33 48 0.0 0.0 0.00 0.00 0.00 70 1018.4
20260502101836 33 322 0.0 0.0 0.00 0.00 0.00 70 1018.5
20260502101334 33 85 0.0 0.0 0.00 0.00 0.00 70 1018.5
20260502100832 33 87 0.0 1.0 0.00 0.00 0.00 71 1018.5
20260502100331 33 107 0.0 1.0 0.00 0.00 0.00 72 1018.6
20260502091304 32 86 1.0 1.0 0.00 0.00 0.00 71 1018.4
20260502090802 32 103 1.0 1.0 0.00 0.00 0.00 72 1018.6
20260502090258 32 118 1.0 1.0 0.00 0.00 0.00 72 1018.7
20260502071153 32 186 2.0 2.0 0.00 0.00 0.00 70 1018.7
20260502070651 32 180 1.0 2.0 0.00 0.00 0.00 71 1018.7
20260502070149 32 214 3.0 3.0 0.00 0.00 0.00 70 1018.9
20260502065647 32 91 0.0 1.0 0.00 0.00 0.00 70 1018.9
20260502065144 32 161 1.0 1.0 0.00 0.00 0.00 68 1019.0
20260502064643 32 110 1.0 1.0 0.00 0.00 0.00 69 1019.0
20260502064140 32 224 1.0 2.0 0.00 0.00 0.00 69 1018.9
20260502063637 32 113 0.0 1.0 0.00 0.00 0.00 69 1019.0
20260502063135 32 125 0.0 1.0 0.00 0.00 0.00 70 1019.0
20260502062632 32 252 1.0 2.0 0.00 0.00 0.00 70 1019.1
20260502062130 32 193 1.0 2.0 0.00 0.00 0.00 70 1019.3
20260502061628 32 74 0.0 0.0 0.00 0.00 0.00 70 1019.4
20260502061125 32 96 1.0 1.0 0.00 0.00 0.00 70 1019.1
20260502060625 32 10 1.0 1.0 0.00 0.00 0.00 71 1019.2
20260502060122 32 134 1.0 1.0 0.00 0.00 0.00 71 1019.2
20260502055620 32 170 2.0 3.0 0.00 0.00 0.00 71 1019.0
20260502055118 32 249 1.0 2.0 0.00 0.00 0.00 71 1019.2
20260502054616 32 96 1.0 1.0 0.00 0.00 0.00 72 1019.2
20260502054113 32 220 0.0 1.0 0.00 0.00 0.00 72 1019.2
20260502053610 32 144 1.0 1.0 0.00 0.00 0.00 72 1019.0
20260502053107 32 100 2.0 3.0 0.00 0.00 0.00 71 1019.3
20260502052606 32 230 2.0 3.0 0.00 0.00 0.00 71 1019.4
20260502052104 32 186 2.0 2.0 0.00 0.00 0.00 72 1019.5
20260502051602 32 195 3.0 3.0 0.00 0.00 0.00 73 1019.3
20260502051059 32 231 3.0 5.0 0.00 0.00 0.00 75 1019.5
20260502050555 32 97 0.0 0.0 0.00 0.00 0.00 76 1019.4
20260502050052 31 67 2.0 3.0 0.00 0.00 0.00 78 1019.5
20260502045549 31 215 2.0 2.0 0.00 0.00 0.00 79 1019.6
20260502045046 31 251 1.0 2.0 0.00 0.00 0.00 80 1019.4
20260502044542 31 78 0.0 0.0 0.00 0.00 0.00 80 1019.5
20260502044039 31 238 2.0 2.0 0.00 0.00 0.00 81 1019.5
20260502043537 31 75 0.0 0.0 0.00 0.00 0.00 82 1019.4
20260502043033 31 208 0.0 1.0 0.00 0.00 0.00 81 1019.5
20260502042528 31 107 0.0 1.0 0.00 0.00 0.00 82 1019.6
20260502042026 31 73 0.0 0.0 0.00 0.00 0.00 84 1019.5
20260502041523 30 52 0.0 0.0 0.00 0.00 0.00 84 1019.6
20260502041020 30 86 0.0 0.0 0.00 0.00 0.00 85 1019.6
20260502040517 30 60 0.0 0.0 0.00 0.00 0.00 86 1019.4